Agua Nueva, Texas
Current Conditions -  °F | °C
As of 8:35 AM on Thursday 30 Oct 2014 (Local Time) from KHBV Reporting Station
Overcast Overcast  
Wind Chill: 62°   Ceiling: 100
Heat Index: 62°   Visibility: 0mi
Dew Point: 61°   Wind: 0mph
Humidity: 97%   Direction: NA
Pressure: 30.11"   Gusts: NA
Location:  27.0695°N, 98.7494°W
Report Text: KHBV 301335Z AUTO 00000KT M1/4SM OVC001 17/16 A3011 RMK AO2 T01650160 PWINO
Loading
Personal Weather Stations






























Interactive Weather Map
Tropical Storm Tracking
New forecast layout! Learn more

10-Day Weather Forecast

Advertisements
Track Severe Weather on mobile